Time;durP1;ratioP1;P1;durP2;ratioP2;P2;SDS_P1;SDS_P2;PMS_P1;PMS_P2;Temp;Humidity;BMP_temperature;BMP_pressure;BME280_temperature;BME280_humidity;BME280_pressure;Samples;Min_cycle;Max_cycle;Signal;HPM_P1;HPM_P2
2023/04/08 00:01:19;;;;;;;6.00;4.60;;;5.00;45.40;;;;;;5031221;28;45791;-68
2023/04/08 00:03:45;;;;;;;7.97;4.73;;;5.10;45.30;;;;;;5029369;28;46419;-68
2023/04/08 00:06:10;;;;;;;8.47;5.07;;;5.10;45.10;;;;;;5036864;28;46580;-68
2023/04/08 00:08:36;;;;;;;6.43;5.00;;;5.10;45.30;;;;;;5030858;28;46449;-68
2023/04/08 00:11:02;;;;;;;7.57;4.53;;;5.00;45.10;;;;;;5028915;28;45878;-68
2023/04/08 00:13:27;;;;;;;9.20;5.30;;;5.00;45.00;;;;;;5031645;28;45769;-69
2023/04/08 00:15:53;;;;;;;6.90;4.67;;;5.10;45.00;;;;;;5031677;28;46639;-67
2023/04/08 00:18:19;;;;;;;9.73;4.30;;;5.20;44.80;;;;;;5029308;28;46303;-69
2023/04/08 00:20:44;;;;;;;7.33;4.80;;;5.30;44.40;;;;;;5029029;28;46436;-69
2023/04/08 00:23:10;;;;;;;7.60;4.70;;;5.40;43.90;;;;;;5029763;28;46425;-68
2023/04/08 00:25:36;;;;;;;6.40;4.40;;;5.50;43.50;;;;;;5032230;28;46622;-68
2023/04/08 00:28:01;;;;;;;9.13;4.27;;;5.60;43.20;;;;;;5029663;28;46972;-68
2023/04/08 00:30:27;;;;;;;8.10;4.30;;;5.70;43.20;;;;;;5029238;28;45768;-68
2023/04/08 00:32:53;;;;;;;8.17;4.60;;;5.70;43.10;;;;;;5027886;28;46271;-69
2023/04/08 00:35:19;;;;;;;5.87;4.20;;;5.80;43.10;;;;;;5029262;28;46216;-68
2023/04/08 00:37:44;;;;;;;6.00;4.20;;;5.80;43.00;;;;;;5029693;28;46362;-68
2023/04/08 00:40:11;;;;;;;8.33;4.73;;;5.90;42.90;;;;;;5029451;28;46514;-68
2023/04/08 00:42:37;;;;;;;9.93;5.10;;;6.00;42.90;;;;;;5027877;28;45866;-68
2023/04/08 00:45:03;;;;;;;7.30;5.00;;;6.00;42.70;;;;;;5031485;28;46558;-68
2023/04/08 00:47:29;;;;;;;7.37;4.70;;;6.10;42.60;;;;;;5028466;28;46431;-68
2023/04/08 00:49:55;;;;;;;7.97;4.40;;;6.10;42.90;;;;;;5031816;28;46461;-69
2023/04/08 00:52:20;;;;;;;6.90;4.83;;;6.10;43.00;;;;;;5028816;28;46390;-69
2023/04/08 00:54:46;;;;;;;8.80;4.47;;;6.10;43.10;;;;;;5027896;28;46579;-67
2023/04/08 00:57:12;;;;;;;6.10;4.70;;;6.00;43.20;;;;;;5029339;28;46415;-67
2023/04/08 00:59:37;;;;;;;8.60;5.67;;;6.00;43.30;;;;;;5024579;28;45733;-69
2023/04/08 01:02:26;;;;;;;7.63;4.90;;;5.90;43.70;;;;;;5028514;28;46470;-68
2023/04/08 01:05:03;;;;;;;12.70;5.67;;;5.90;43.90;;;;;;5029532;28;46485;-68
2023/04/08 01:07:47;;;;;;;10.33;5.73;;;5.70;44.30;;;;;;5026860;28;46412;-68
2023/04/08 01:10:20;;;;;;;7.70;5.70;;;5.60;44.60;;;;;;5024806;28;46499;-68
2023/04/08 01:12:55;;;;;;;8.27;5.80;;;5.50;44.90;;;;;;5030087;28;46741;-67
2023/04/08 01:15:23;;;;;;;9.20;5.30;;;5.30;45.30;;;;;;5029744;28;46184;-68
2023/04/08 01:17:53;;;;;;;7.97;5.10;;;5.20;45.80;;;;;;5029487;28;46564;-68
2023/04/08 01:20:20;;;;;;;8.83;5.40;;;5.00;46.20;;;;;;5027186;28;46537;-68
2023/04/08 01:23:00;;;;;;;14.43;6.60;;;5.00;46.70;;;;;;5030489;28;46474;-68
2023/04/08 01:25:31;;;;;;;7.93;5.90;;;4.90;46.90;;;;;;5029485;28;46480;-68
2023/04/08 01:28:06;;;;;;;10.10;6.00;;;4.90;47.30;;;;;;5027465;28;47205;-67
2023/04/08 01:30:33;;;;;;;9.23;6.03;;;4.80;47.40;;;;;;5027535;28;46584;-67
2023/04/08 01:33:02;;;;;;;9.40;6.13;;;4.70;47.90;;;;;;5030152;28;46448;-67
2023/04/08 01:35:30;;;;;;;10.10;5.70;;;4.60;48.00;;;;;;5025146;28;46358;-67
2023/04/08 01:37:56;;;;;;;9.10;5.83;;;4.60;48.00;;;;;;5026889;28;46819;-68
2023/04/08 01:40:22;;;;;;;10.67;6.40;;;4.60;48.00;;;;;;5027074;28;46452;-68
2023/04/08 01:42:49;;;;;;;12.80;6.40;;;4.50;47.90;;;;;;5029818;28;46423;-68
2023/04/08 01:45:16;;;;;;;8.90;5.70;;;4.50;47.90;;;;;;5024838;28;45922;-68
2023/04/08 01:47:43;;;;;;;9.03;5.77;;;4.50;47.90;;;;;;5027322;28;46304;-68
2023/04/08 01:50:11;;;;;;;16.20;6.40;;;4.40;47.80;;;;;;5028858;28;46436;-68
2023/04/08 01:52:39;;;;;;;11.10;5.80;;;4.40;47.90;;;;;;5029003;28;46675;-68
2023/04/08 01:55:05;;;;;;;10.20;6.90;;;4.30;47.70;;;;;;5026531;28;46414;-69
2023/04/08 01:57:33;;;;;;;14.13;7.33;;;4.30;47.70;;;;;;5023648;28;48340;-67
2023/04/08 02:00:03;;;;;;;12.60;7.27;;;4.30;47.90;;;;;;5030849;28;45854;-67
2023/04/08 02:02:30;;;;;;;11.47;7.57;;;4.30;48.20;;;;;;5028133;28;46566;-68
2023/04/08 02:04:57;;;;;;;10.23;7.07;;;4.30;48.40;;;;;;5028676;28;46484;-68
2023/04/08 02:07:23;;;;;;;17.07;8.13;;;4.30;48.40;;;;;;5025359;28;46481;-68
2023/04/08 02:09:49;;;;;;;14.60;8.53;;;4.20;48.40;;;;;;5022512;28;46290;-68
2023/04/08 02:12:15;;;;;;;14.00;7.20;;;4.20;48.70;;;;;;5026437;28;45811;-68
2023/04/08 02:14:41;;;;;;;18.60;8.67;;;4.20;48.80;;;;;;5024627;28;46343;-68
2023/04/08 02:17:15;;;;;;;20.93;8.27;;;4.20;48.80;;;;;;5026889;28;46413;-67
2023/04/08 02:19:55;;;;;;;13.60;8.70;;;4.20;48.90;;;;;;5028904;28;46323;-67
2023/04/08 02:22:38;;;;;;;13.20;7.63;;;4.20;48.90;;;;;;5024432;28;46688;-68
2023/04/08 02:25:10;;;;;;;12.93;8.63;;;4.10;49.20;;;;;;5031966;28;46676;-67
2023/04/08 02:27:38;;;;;;;13.40;8.13;;;4.10;49.10;;;;;;5025557;28;46477;-67
2023/04/08 02:30:05;;;;;;;10.97;7.23;;;4.20;49.30;;;;;;5028579;28;45807;-68
2023/04/08 02:32:33;;;;;;;20.53;8.60;;;4.10;49.30;;;;;;5025170;28;46473;-68
2023/04/08 02:35:00;;;;;;;12.93;9.10;;;4.10;49.40;;;;;;5027361;28;46397;-67
2023/04/08 02:37:30;;;;;;;13.10;7.90;;;4.10;49.50;;;;;;5027879;28;46516;-67
2023/04/08 02:39:56;;;;;;;10.13;7.03;;;4.10;49.60;;;;;;5030069;28;45844;-67
2023/04/08 02:42:22;;;;;;;15.40;8.30;;;4.10;49.60;;;;;;5029838;28;46010;-67
2023/04/08 02:44:47;;;;;;;17.47;7.30;;;4.10;49.70;;;;;;5032717;28;46310;-67
2023/04/08 02:47:13;;;;;;;11.60;7.80;;;4.10;49.80;;;;;;5030598;28;46421;-67
2023/04/08 02:49:39;;;;;;;14.40;8.00;;;4.10;49.70;;;;;;5028839;28;46295;-67
2023/04/08 02:52:04;;;;;;;16.77;8.33;;;4.20;49.60;;;;;;5036516;28;46392;-67
2023/04/08 02:54:30;;;;;;;15.27;8.47;;;4.20;49.10;;;;;;5030704;28;46687;-67
2023/04/08 02:56:56;;;;;;;16.97;9.03;;;4.30;48.90;;;;;;5026628;28;47215;-67
2023/04/08 02:59:21;;;;;;;17.33;10.40;;;4.30;48.80;;;;;;5025289;28;46508;-67
2023/04/08 03:01:47;;;;;;;14.70;9.00;;;4.40;48.20;;;;;;5034146;28;46862;-67
2023/04/08 03:04:12;;;;;;;16.13;9.20;;;4.50;47.90;;;;;;5034454;28;46522;-67
2023/04/08 03:06:38;;;;;;;17.07;10.43;;;4.70;49.30;;;;;;5031189;28;46437;-67
2023/04/08 03:09:04;;;;;;;14.07;9.67;;;4.80;48.20;;;;;;5029140;28;46425;-67
2023/04/08 03:11:30;;;;;;;16.60;10.80;;;4.90;47.90;;;;;;5026248;28;46358;-67
2023/04/08 03:13:56;;;;;;;18.43;11.37;;;5.00;47.50;;;;;;5029431;28;46681;-67
2023/04/08 03:16:22;;;;;;;13.70;9.83;;;5.10;47.40;;;;;;5034498;28;47236;-67
2023/04/08 03:18:51;;;;;;;14.63;9.97;;;5.10;47.50;;;;;;5036143;28;46333;-67
2023/04/08 03:21:17;;;;;;;15.13;9.93;;;5.20;47.70;;;;;;5029252;28;45821;-67
2023/04/08 03:23:43;;;;;;;15.10;10.33;;;5.20;48.00;;;;;;5026981;28;46429;-67
2023/04/08 03:26:08;;;;;;;16.37;10.30;;;5.10;48.40;;;;;;5028924;28;46650;-66
2023/04/08 03:28:34;;;;;;;20.60;10.80;;;5.10;48.50;;;;;;5024239;28;46454;-66
2023/04/08 03:31:01;;;;;;;16.53;11.10;;;5.00;48.30;;;;;;5032469;28;46455;-66
2023/04/08 03:33:27;;;;;;;18.43;10.10;;;5.10;48.40;;;;;;5029948;28;46600;-67
2023/04/08 03:35:53;;;;;;;15.60;10.90;;;5.10;48.40;;;;;;5029400;28;46951;-67
2023/04/08 03:38:19;;;;;;;14.90;9.67;;;5.10;48.40;;;;;;5027852;28;46254;-68
2023/04/08 03:40:44;;;;;;;19.20;10.70;;;5.20;48.60;;;;;;5029605;28;46450;-68
2023/04/08 03:43:11;;;;;;;16.30;10.37;;;5.30;48.60;;;;;;5032971;28;46423;-68
2023/04/08 03:45:36;;;;;;;14.17;9.87;;;5.40;48.70;;;;;;5030409;28;46543;-67
2023/04/08 03:48:03;;;;;;;15.83;9.63;;;5.50;48.80;;;;;;5030548;28;46585;-68
2023/04/08 03:50:28;;;;;;;15.27;10.20;;;5.60;48.30;;;;;;5030381;28;46438;-67
2023/04/08 03:52:54;;;;;;;15.97;10.80;;;5.70;47.80;;;;;;5028810;28;46408;-67
2023/04/08 03:55:19;;;;;;;14.20;10.03;;;5.80;47.50;;;;;;5029261;28;47091;-68
2023/04/08 03:57:45;;;;;;;18.63;11.20;;;5.90;47.50;;;;;;5031003;28;46317;-68
2023/04/08 04:00:11;;;;;;;19.83;10.73;;;6.00;47.40;;;;;;5031917;28;46417;-68
2023/04/08 04:02:37;;;;;;;18.87;10.47;;;6.00;47.30;;;;;;5028641;28;46357;-67
2023/04/08 04:05:02;;;;;;;16.47;10.03;;;6.10;47.30;;;;;;5029664;28;46350;-68
2023/04/08 04:07:28;;;;;;;19.57;10.30;;;6.20;47.40;;;;;;5027121;28;46421;-68
2023/04/08 04:09:55;;;;;;;20.73;10.10;;;6.20;47.40;;;;;;5032122;28;46396;-67
2023/04/08 04:12:22;;;;;;;14.00;9.63;;;6.30;47.50;;;;;;5028331;28;46479;-68
2023/04/08 04:14:47;;;;;;;16.93;11.00;;;6.40;47.30;;;;;;5028215;28;47135;-68
2023/04/08 04:17:13;;;;;;;15.10;9.80;;;6.50;47.40;;;;;;5027316;28;47295;-68
2023/04/08 04:19:38;;;;;;;19.10;10.97;;;6.50;47.20;;;;;;5026463;28;46543;-68
2023/04/08 04:22:04;;;;;;;14.93;10.63;;;6.50;47.20;;;;;;5030223;28;46471;-68
2023/04/08 04:24:29;;;;;;;15.50;10.50;;;6.50;47.40;;;;;;5026157;28;47292;-68
2023/04/08 04:26:55;;;;;;;17.10;11.40;;;6.60;47.50;;;;;;5026583;28;46458;-68
2023/04/08 04:29:21;;;;;;;17.63;9.40;;;6.60;47.70;;;;;;5032229;28;46467;-68
2023/04/08 04:31:46;;;;;;;16.10;10.33;;;6.60;47.70;;;;;;5031532;28;46450;-68
2023/04/08 04:34:12;;;;;;;15.53;9.70;;;6.70;47.90;;;;;;5032511;28;46063;-68
2023/04/08 04:36:37;;;;;;;14.27;9.70;;;6.70;47.90;;;;;;5030129;28;46389;-68
2023/04/08 04:39:03;;;;;;;16.17;9.33;;;6.80;48.00;;;;;;5027144;28;46471;-68
2023/04/08 04:41:29;;;;;;;12.93;9.30;;;6.80;47.90;;;;;;5030218;28;46447;-68
2023/04/08 04:43:54;;;;;;;15.30;9.10;;;6.80;48.00;;;;;;5025952;28;46288;-68
2023/04/08 04:46:20;;;;;;;17.07;9.50;;;6.80;48.20;;;;;;5031127;28;46495;-68
2023/04/08 04:48:45;;;;;;;16.97;10.03;;;6.90;48.20;;;;;;5029034;28;46457;-68
2023/04/08 04:51:11;;;;;;;14.43;9.30;;;6.90;48.30;;;;;;5029630;28;46573;-68
2023/04/08 04:53:37;;;;;;;12.80;9.20;;;6.90;48.30;;;;;;5028519;28;46061;-68
2023/04/08 04:56:02;;;;;;;14.93;9.90;;;6.90;48.30;;;;;;5026417;28;46357;-68
2023/04/08 04:58:29;;;;;;;14.03;10.57;;;7.00;48.40;;;;;;5026715;28;46355;-67
2023/04/08 05:00:55;;;;;;;16.60;10.63;;;7.00;48.30;;;;;;5026088;28;46445;-68
2023/04/08 05:03:21;;;;;;;14.30;10.50;;;7.00;48.30;;;;;;5026935;28;46383;-67
2023/04/08 05:05:51;;;;;;;14.70;10.23;;;7.00;48.50;;;;;;5028847;28;45987;-67
2023/04/08 05:08:16;;;;;;;16.83;11.87;;;7.10;48.40;;;;;;5028361;28;46498;-67
2023/04/08 05:10:42;;;;;;;19.00;11.90;;;7.10;48.40;;;;;;5024675;28;46465;-68
2023/04/08 05:13:08;;;;;;;16.70;12.00;;;7.20;48.40;;;;;;5029380;28;46401;-67
2023/04/08 05:15:33;;;;;;;14.30;10.67;;;7.20;48.30;;;;;;5028777;28;45833;-67
2023/04/08 05:17:59;;;;;;;19.80;12.20;;;7.30;48.40;;;;;;5029258;28;46422;-68
2023/04/08 05:20:24;;;;;;;16.90;11.87;;;7.30;48.40;;;;;;5028938;28;46649;-67
2023/04/08 05:22:50;;;;;;;15.30;11.10;;;7.40;48.40;;;;;;5029743;28;46512;-67
2023/04/08 05:25:16;;;;;;;18.90;11.40;;;7.40;48.50;;;;;;5028112;28;46457;-67
2023/04/08 05:27:41;;;;;;;15.37;11.27;;;7.40;48.60;;;;;;5028031;28;46438;-67
2023/04/08 05:30:08;;;;;;;17.23;10.60;;;7.50;48.60;;;;;;5025652;28;46566;-67
2023/04/08 05:32:34;;;;;;;17.57;10.43;;;7.50;48.50;;;;;;5023436;28;46993;-67
2023/04/08 05:35:04;;;;;;;14.30;10.53;;;7.60;48.30;;;;;;5027823;28;46302;-67
2023/04/08 05:37:30;;;;;;;16.93;10.40;;;7.60;48.10;;;;;;5028171;28;46334;-68
2023/04/08 05:39:56;;;;;;;14.80;11.20;;;7.60;48.30;;;;;;5031253;28;46508;-67
2023/04/08 05:42:21;;;;;;;17.77;10.97;;;7.60;48.40;;;;;;5025606;28;46417;-67
2023/04/08 05:44:47;;;;;;;20.53;10.67;;;7.70;48.40;;;;;;5027934;28;46369;-67
2023/04/08 05:47:13;;;;;;;16.00;11.50;;;7.80;48.40;;;;;;5028786;28;46412;-67
2023/04/08 05:49:39;;;;;;;16.23;11.40;;;7.80;48.30;;;;;;5024401;28;46495;-67
2023/04/08 05:52:05;;;;;;;14.83;10.63;;;7.90;48.30;;;;;;5026470;28;46382;-67
2023/04/08 05:54:31;;;;;;;15.20;10.30;;;8.00;48.40;;;;;;5028607;28;46431;-67
2023/04/08 05:56:57;;;;;;;16.10;11.50;;;8.00;48.40;;;;;;5023972;28;46445;-67
2023/04/08 05:59:22;;;;;;;16.10;10.23;;;7.90;48.80;;;;;;5028047;28;46466;-67
2023/04/08 06:01:48;;;;;;;15.13;10.73;;;8.00;49.10;;;;;;5028642;28;46466;-67
2023/04/08 06:04:16;;;;;;;14.00;10.33;;;7.90;49.40;;;;;;5029607;28;46481;-67
2023/04/08 06:06:42;;;;;;;16.27;11.10;;;8.00;49.50;;;;;;5027592;28;45773;-68
2023/04/08 06:09:08;;;;;;;18.10;11.17;;;8.00;49.40;;;;;;5029898;28;46493;-68
2023/04/08 06:11:34;;;;;;;14.93;10.27;;;8.20;49.00;;;;;;5027909;28;48083;-68
2023/04/08 06:14:00;;;;;;;16.57;11.23;;;8.30;48.80;;;;;;5030869;28;46435;-68
2023/04/08 06:16:26;;;;;;;15.13;10.63;;;8.50;48.50;;;;;;5028678;28;46301;-68
2023/04/08 06:18:51;;;;;;;17.90;12.07;;;8.50;48.50;;;;;;5031073;28;45994;-67
2023/04/08 06:21:17;;;;;;;15.90;11.57;;;8.60;48.50;;;;;;5033596;28;46422;-68
2023/04/08 06:23:43;;;;;;;15.87;11.40;;;8.70;48.20;;;;;;5031983;28;46279;-69
2023/04/08 06:26:08;;;;;;;14.77;10.27;;;8.80;48.20;;;;;;5030126;28;46644;-68
2023/04/08 06:28:34;;;;;;;18.67;11.47;;;8.90;48.20;;;;;;5030720;28;46490;-68
2023/04/08 06:31:00;;;;;;;16.07;11.57;;;9.20;48.00;;;;;;5029512;28;47181;-69
2023/04/08 06:33:25;;;;;;;15.53;11.83;;;9.00;48.00;;;;;;5032853;28;46369;-69
2023/04/08 06:35:51;;;;;;;19.33;12.23;;;9.00;48.60;;;;;;5033494;28;46342;-69
2023/04/08 06:38:17;;;;;;;19.60;12.20;;;8.80;49.10;;;;;;5029576;28;46283;-69
2023/04/08 06:40:42;;;;;;;18.53;11.70;;;8.70;49.40;;;;;;5030901;28;46881;-69
2023/04/08 06:43:08;;;;;;;18.37;11.77;;;8.60;51.00;;;;;;5032706;28;46485;-69
2023/04/08 06:45:34;;;;;;;16.43;11.30;;;8.50;51.30;;;;;;5032301;28;46240;-67
2023/04/08 06:48:00;;;;;;;20.67;13.77;;;8.40;51.20;;;;;;5029768;28;46568;-69
2023/04/08 06:50:26;;;;;;;15.90;11.63;;;8.30;52.00;;;;;;5033996;28;46797;-69
2023/04/08 06:52:51;;;;;;;30.00;14.80;;;8.20;53.70;;;;;;5032488;28;45870;-66
2023/04/08 06:55:17;;;;;;;21.17;14.10;;;8.20;54.30;;;;;;5031013;28;46433;-67
2023/04/08 06:57:42;;;;;;;23.20;14.97;;;8.30;53.80;;;;;;5027927;28;46395;-67
2023/04/08 07:00:09;;;;;;;23.00;14.40;;;8.50;54.60;;;;;;5031229;28;46441;-67
2023/04/08 07:02:34;;;;;;;18.10;13.40;;;8.50;53.40;;;;;;5031151;28;46465;-67
2023/04/08 07:05:00;;;;;;;27.70;14.83;;;8.60;52.90;;;;;;5030192;28;46804;-67
2023/04/08 07:07:26;;;;;;;21.03;14.53;;;8.60;52.40;;;;;;5035004;28;46419;-67
2023/04/08 07:09:51;;;;;;;20.70;14.37;;;8.70;52.20;;;;;;5030528;28;46659;-67
2023/04/08 07:12:17;;;;;;;22.73;14.40;;;8.70;51.70;;;;;;5029078;28;46421;-67
2023/04/08 07:14:43;;;;;;;21.30;13.60;;;8.60;52.00;;;;;;5028723;28;46365;-67
2023/04/08 07:17:08;;;;;;;18.37;13.27;;;8.70;51.60;;;;;;5036792;28;46717;-67
2023/04/08 07:19:34;;;;;;;21.93;13.33;;;8.60;51.40;;;;;;5030097;28;47027;-65
2023/04/08 07:22:00;;;;;;;23.87;14.17;;;8.40;51.20;;;;;;5030478;28;46398;-65
2023/04/08 07:24:26;;;;;;;17.60;13.00;;;8.40;51.20;;;;;;5026259;28;46346;-67
2023/04/08 07:26:52;;;;;;;21.23;13.50;;;8.30;51.20;;;;;;5030485;28;46446;-66
2023/04/08 07:29:17;;;;;;;17.27;11.97;;;8.50;50.90;;;;;;5032124;28;47001;-66
2023/04/08 07:31:43;;;;;;;20.47;13.13;;;8.60;49.90;;;;;;5030046;28;46582;-67
2023/04/08 07:34:09;;;;;;;19.50;12.80;;;8.70;49.00;;;;;;5031091;28;46398;-67
2023/04/08 07:36:35;;;;;;;20.67;12.60;;;8.80;48.10;;;;;;5026308;28;46493;-67
2023/04/08 07:39:01;;;;;;;16.97;12.17;;;8.80;47.20;;;;;;5025313;28;46533;-67
2023/04/08 07:41:27;;;;;;;21.63;12.77;;;8.70;46.10;;;;;;5027794;28;46478;-66
2023/04/08 07:43:52;;;;;;;18.37;12.70;;;8.60;46.20;;;;;;5029635;28;46382;-66
2023/04/08 07:46:19;;;;;;;17.07;12.07;;;8.70;45.20;;;;;;5027465;28;45887;-66
2023/04/08 07:48:45;;;;;;;20.00;12.83;;;8.60;43.80;;;;;;5025800;28;46721;-67
2023/04/08 07:51:11;;;;;;;20.47;11.77;;;8.70;43.60;;;;;;5034804;28;46224;-67
2023/04/08 07:53:37;;;;;;;18.53;12.73;;;8.80;42.70;;;;;;5028162;28;46469;-67
2023/04/08 07:56:09;;;;;;;25.40;11.83;;;8.80;41.90;;;;;;5029369;28;45854;-66
2023/04/08 07:58:34;;;;;;;17.00;11.10;;;9.00;41.80;;;;;;5027606;28;46750;-68
2023/04/08 08:01:00;;;;;;;20.73;12.03;;;9.00;41.10;;;;;;5029434;28;46397;-69
2023/04/08 08:03:26;;;;;;;21.30;11.60;;;8.80;39.80;;;;;;5030260;28;46325;-67
2023/04/08 08:05:51;;;;;;;22.07;11.70;;;8.90;39.70;;;;;;5028173;28;46715;-66
2023/04/08 08:08:17;;;;;;;21.53;12.57;;;8.90;39.40;;;;;;5031726;28;47494;-67
2023/04/08 08:10:43;;;;;;;21.63;12.57;;;9.00;39.20;;;;;;5024548;28;46675;-69
2023/04/08 08:13:08;;;;;;;19.03;12.70;;;9.20;38.70;;;;;;5026114;28;46450;-67
2023/04/08 08:15:34;;;;;;;19.53;11.63;;;9.20;37.70;;;;;;5028660;28;46432;-66
2023/04/08 08:18:00;;;;;;;17.97;12.07;;;9.10;35.70;;;;;;5027016;28;46710;-65
2023/04/08 08:20:26;;;;;;;18.67;11.00;;;9.10;35.80;;;;;;5031344;28;46295;-66
2023/04/08 08:22:51;;;;;;;17.83;12.40;;;9.40;35.50;;;;;;5031091;28;46521;-66
2023/04/08 08:25:17;;;;;;;19.30;11.50;;;9.50;34.10;;;;;;5031338;28;45997;-67
2023/04/08 08:27:44;;;;;;;19.90;12.37;;;9.50;33.30;;;;;;5028927;28;47059;-66
2023/04/08 08:30:10;;;;;;;20.00;11.93;;;9.60;33.60;;;;;;5024035;28;46547;-68
2023/04/08 08:32:36;;;;;;;18.53;12.20;;;9.70;32.40;;;;;;5029525;28;46331;-67
2023/04/08 08:35:01;;;;;;;17.97;11.93;;;9.80;32.70;;;;;;5032078;28;46427;-67
2023/04/08 08:37:27;;;;;;;18.73;12.17;;;9.70;31.70;;;;;;5028122;28;46394;-65
2023/04/08 08:39:53;;;;;;;18.80;12.17;;;9.90;32.20;;;;;;5029989;28;46359;-66
2023/04/08 08:42:21;;;;;;;21.77;11.70;;;9.80;31.00;;;;;;5032079;28;46235;-66
2023/04/08 08:44:46;;;;;;;21.83;11.93;;;9.80;30.60;;;;;;5029395;28;46393;-67
2023/04/08 08:47:12;;;;;;;17.00;11.37;;;9.80;30.40;;;;;;5029509;28;47167;-70
2023/04/08 08:49:38;;;;;;;20.37;11.30;;;9.70;30.30;;;;;;5027189;28;46448;-67
2023/04/08 08:52:05;;;;;;;21.43;10.97;;;9.70;29.90;;;;;;5027708;28;46509;-68
2023/04/08 08:54:31;;;;;;;17.00;11.13;;;9.70;29.80;;;;;;5033763;28;46287;-71
2023/04/08 08:56:57;;;;;;;16.27;11.17;;;9.70;29.70;;;;;;5030619;28;46402;-66
2023/04/08 08:59:22;;;;;;;17.83;11.27;;;9.60;29.60;;;;;;5030258;28;45860;-66
2023/04/08 09:01:48;;;;;;;24.20;13.47;;;9.60;29.00;;;;;;5026973;28;46742;-66
2023/04/08 09:04:18;;;;;;;17.80;11.40;;;9.50;29.30;;;;;;5031988;28;46333;-66
2023/04/08 09:06:46;;;;;;;16.63;10.50;;;9.50;29.40;;;;;;5031407;28;46459;-67
2023/04/08 09:09:12;;;;;;;13.70;9.27;;;9.10;28.30;;;;;;5027891;28;46567;-67
2023/04/08 09:11:43;;;;;;;15.43;9.23;;;8.80;28.60;;;;;;5029311;28;45824;-67
2023/04/08 09:14:18;;;;;;;12.63;8.30;;;8.60;28.70;;;;;;5029629;28;46386;-66
2023/04/08 09:16:44;;;;;;;12.53;8.40;;;8.50;28.80;;;;;;5030905;28;46472;-66
2023/04/08 09:19:10;;;;;;;15.43;9.30;;;8.30;29.00;;;;;;5027652;28;46430;-67
2023/04/08 09:21:37;;;;;;;13.60;10.00;;;8.20;29.30;;;;;;5033343;28;46451;-67
2023/04/08 09:24:03;;;;;;;17.83;11.80;;;8.40;29.60;;;;;;5026155;28;46611;-67
2023/04/08 09:26:28;;;;;;;16.90;11.10;;;8.40;29.70;;;;;;5030545;28;46590;-67
2023/04/08 09:29:08;;;;;;;15.43;10.20;;;8.30;30.00;;;;;;5029947;28;46481;-66
2023/04/08 09:31:37;;;;;;;18.53;11.10;;;8.30;30.60;;;;;;5038082;28;46364;-66
2023/04/08 09:34:16;;;;;;;15.73;9.73;;;8.30;30.50;;;;;;5030863;28;46481;-67
2023/04/08 09:36:46;;;;;;;16.50;10.53;;;8.40;30.70;;;;;;5029441;28;47277;-66
2023/04/08 09:39:12;;;;;;;16.23;10.20;;;8.30;31.70;;;;;;5027794;28;46362;-66
2023/04/08 09:41:38;;;;;;;15.90;11.13;;;8.10;32.40;;;;;;5029532;28;46485;-66
2023/04/08 09:44:11;;;;;;;17.47;12.13;;;8.00;33.10;;;;;;5032112;28;46500;-68
2023/04/08 09:46:47;;;;;;;15.63;10.90;;;8.00;33.60;;;;;;5037927;28;46361;-65
2023/04/08 09:49:15;;;;;;;18.07;11.47;;;8.00;33.50;;;;;;5030520;28;46436;-66
2023/04/08 09:51:59;;;;;;;16.70;11.97;;;8.10;33.90;;;;;;5028512;28;46382;-66
2023/04/08 09:54:48;;;;;;;16.33;11.10;;;8.20;33.90;;;;;;5031015;28;46482;-66
2023/04/08 09:57:20;;;;;;;18.90;11.80;;;8.10;34.30;;;;;;5027743;28;46497;-65
2023/04/08 09:59:52;;;;;;;15.73;10.60;;;7.90;34.90;;;;;;5030858;28;46508;-66
2023/04/08 10:02:28;;;;;;;15.50;10.43;;;7.90;35.30;;;;;;5029543;28;46517;-67
2023/04/08 10:04:57;;;;;;;18.33;11.17;;;7.90;35.60;;;;;;5030005;28;45803;-65
2023/04/08 10:07:22;;;;;;;22.87;11.67;;;7.90;36.00;;;;;;5030319;28;46134;-67
2023/04/08 10:09:48;;;;;;;23.23;11.37;;;7.90;36.10;;;;;;5027844;28;45913;-66
2023/04/08 10:12:15;;;;;;;17.93;11.20;;;7.90;36.40;;;;;;5025944;28;46519;-67
2023/04/08 10:14:40;;;;;;;40.57;23.50;;;8.10;36.10;;;;;;5028600;28;46319;-67
2023/04/08 10:17:26;;;;;;;23.50;13.40;;;8.10;37.20;;;;;;5029768;28;46469;-67
2023/04/08 10:19:52;;;;;;;19.03;12.07;;;8.30;35.80;;;;;;5034891;28;45934;-66
2023/04/08 10:22:32;;;;;;;20.80;12.50;;;8.40;35.50;;;;;;5033048;28;46503;-66
2023/04/08 10:25:29;;;;;;;33.23;21.80;;;8.70;34.90;;;;;;5032549;28;46279;-66
2023/04/08 10:27:55;;;;;;;22.00;13.83;;;8.90;34.70;;;;;;5028642;28;46035;-66
2023/04/08 10:30:26;;;;;;;30.77;12.77;;;9.00;34.90;;;;;;5027419;28;45867;-67
2023/04/08 10:32:56;;;;;;;20.87;14.10;;;9.20;34.40;;;;;;5029098;28;46370;-66
2023/04/08 10:35:35;;;;;;;23.93;14.00;;;9.40;34.80;;;;;;5028090;28;46541;-65
2023/04/08 10:38:02;;;;;;;15.60;10.47;;;9.50;34.60;;;;;;5028773;28;47572;-66
2023/04/08 10:40:28;;;;;;;17.47;11.40;;;9.70;33.90;;;;;;5029254;28;46233;-67
2023/04/08 10:42:57;;;;;;;15.67;10.50;;;9.90;33.40;;;;;;5026642;28;46457;-66
2023/04/08 10:45:23;;;;;;;18.57;12.93;;;10.10;32.00;;;;;;5031623;28;45952;-68
2023/04/08 10:47:49;;;;;;;18.00;12.47;;;10.10;31.80;;;;;;5025145;28;47320;-68
2023/04/08 10:50:16;;;;;;;15.20;10.80;;;10.30;31.70;;;;;;5031558;28;46766;-68
2023/04/08 10:52:52;;;;;;;19.40;10.63;;;10.50;31.10;;;;;;5030595;28;46255;-66
2023/04/08 10:55:23;;;;;;;18.40;12.83;;;10.60;30.70;;;;;;5032192;28;46441;-65
2023/04/08 10:57:50;;;;;;;18.47;12.37;;;10.60;30.40;;;;;;5034740;28;46225;-70
2023/04/08 11:00:31;;;;;;;21.67;13.07;;;10.90;30.10;;;;;;5035738;28;46456;-67
2023/04/08 11:03:07;;;;;;;21.27;10.80;;;11.10;29.90;;;;;;5031806;28;46425;-67
2023/04/08 11:05:33;;;;;;;17.60;11.10;;;11.50;29.20;;;;;;5030276;28;46450;-67
2023/04/08 11:07:59;;;;;;;17.40;11.23;;;11.60;28.60;;;;;;5030606;28;46918;-67
2023/04/08 11:10:28;;;;;;;16.20;11.40;;;11.70;28.30;;;;;;5028669;28;46421;-68
2023/04/08 11:12:54;;;;;;;18.13;11.37;;;11.80;28.30;;;;;;5028172;28;46393;-67
2023/04/08 11:15:21;;;;;;;14.37;9.93;;;11.70;27.30;;;;;;5029561;28;46558;-67
2023/04/08 11:17:48;;;;;;;14.27;10.30;;;11.70;27.30;;;;;;5029284;28;46937;-67
2023/04/08 11:20:14;;;;;;;15.93;10.30;;;11.40;26.30;;;;;;5027270;28;46410;-67
2023/04/08 11:22:39;;;;;;;17.67;10.97;;;11.40;27.10;;;;;;5025959;28;47405;-70
2023/04/08 11:25:08;;;;;;;14.53;10.53;;;11.40;27.10;;;;;;5026031;28;46473;-71
2023/04/08 11:27:35;;;;;;;18.63;11.47;;;11.10;25.10;;;;;;5035228;28;47280;-68
2023/04/08 11:30:01;;;;;;;15.80;11.00;;;11.00;26.10;;;;;;5032813;28;46423;-69
2023/04/08 11:32:30;;;;;;;18.87;10.93;;;10.90;26.70;;;;;;5030677;28;46468;-69
2023/04/08 11:34:58;;;;;;;19.23;10.60;;;11.00;26.80;;;;;;5028793;28;46478;-66
2023/04/08 11:37:26;;;;;;;20.63;11.20;;;10.70;25.90;;;;;;5027456;28;46335;-66
2023/04/08 11:39:55;;;;;;;15.20;10.57;;;10.50;26.40;;;;;;5028881;28;46227;-69
2023/04/08 11:42:32;;;;;;;15.83;10.90;;;10.50;26.50;;;;;;5036663;28;46437;-69
2023/04/08 11:44:58;;;;;;;17.97;10.83;;;10.40;26.40;;;;;;5031342;28;46311;-66
2023/04/08 11:47:33;;;;;;;17.43;10.67;;;10.30;26.30;;;;;;5030411;28;47345;-67
2023/04/08 11:50:00;;;;;;;18.43;9.83;;;10.20;26.20;;;;;;5033956;28;46374;-67
2023/04/08 11:52:45;;;;;;;16.33;10.10;;;10.20;26.20;;;;;;5029880;28;46519;-66
2023/04/08 11:55:21;;;;;;;14.77;10.40;;;10.30;26.20;;;;;;5034004;28;46387;-66
2023/04/08 11:57:47;;;;;;;22.23;10.07;;;10.40;26.40;;;;;;5029185;28;46446;-65
2023/04/08 12:00:13;;;;;;;15.13;9.93;;;10.20;25.80;;;;;;5031716;28;46437;-64
2023/04/08 12:02:39;;;;;;;20.03;11.50;;;10.10;26.20;;;;;;5030234;28;46422;-66
2023/04/08 12:05:05;;;;;;;16.60;11.20;;;10.20;26.20;;;;;;5037753;28;46832;-66
2023/04/08 12:07:31;;;;;;;21.87;12.30;;;10.40;26.20;;;;;;5032694;28;48413;-67
2023/04/08 12:09:57;;;;;;;22.30;14.40;;;10.40;26.20;;;;;;5028289;28;46489;-68
2023/04/08 12:12:22;;;;;;;17.33;11.20;;;10.40;26.30;;;;;;5032280;28;46427;-67
2023/04/08 12:14:48;;;;;;;16.57;10.87;;;10.20;26.20;;;;;;5032989;28;46399;-66
2023/04/08 12:17:14;;;;;;;25.03;15.40;;;10.00;25.20;;;;;;5029971;28;46617;-67
2023/04/08 12:19:40;;;;;;;29.00;16.57;;;9.90;26.30;;;;;;5031364;28;46848;-66
2023/04/08 12:22:06;;;;;;;32.80;17.67;;;9.90;26.80;;;;;;5033883;28;46236;-67
2023/04/08 12:24:32;;;;;;;21.40;13.20;;;9.70;26.70;;;;;;5027155;28;46735;-67
2023/04/08 12:26:57;;;;;;;37.70;20.90;;;9.60;26.60;;;;;;5025898;28;47956;-69
2023/04/08 12:29:23;;;;;;;27.97;16.83;;;9.20;26.30;;;;;;5031080;28;46441;-67
2023/04/08 12:31:49;;;;;;;22.80;12.57;;;9.10;26.70;;;;;;5026908;28;45888;-66
2023/04/08 12:34:15;;;;;;;17.73;11.70;;;9.00;27.00;;;;;;5030610;28;45908;-66
2023/04/08 12:36:41;;;;;;;17.53;12.20;;;9.00;27.00;;;;;;5031645;28;46488;-67
2023/04/08 12:39:07;;;;;;;29.17;16.60;;;9.00;27.20;;;;;;5029435;28;46408;-67
2023/04/08 12:41:32;;;;;;;23.30;13.37;;;9.00;27.20;;;;;;5029270;28;46002;-68